Time;durP1;ratioP1;P1;durP2;ratioP2;P2;SDS_P1;SDS_P2;PMS_P1;PMS_P2;Temp;Humidity;BMP_temperature;BMP_pressure;BME280_temperature;BME280_humidity;BME280_pressure;Samples;Min_cycle;Max_cycle;Signal;HPM_P1;HPM_P2
2022/05/01 00:01:12;;;;;;;12.23;9.85;;;14.70;1.00;;;;;;5091954;28;20475;-86
2022/05/01 00:03:39;;;;;;;11.48;10.13;;;14.50;1.00;;;;;;5092411;28;20024;-86
2022/05/01 00:06:10;;;;;;;11.40;9.70;;;14.60;1.00;;;;;;5092521;28;20091;-86
2022/05/01 00:08:38;;;;;;;11.57;9.45;;;14.60;1.00;;;;;;5091304;28;20043;-86
2022/05/01 00:11:04;;;;;;;11.15;9.57;;;14.60;1.00;;;;;;5091502;28;20028;-86
2022/05/01 00:13:30;;;;;;;12.18;10.23;;;14.60;1.00;;;;;;5090333;28;20526;-85
2022/05/01 00:15:56;;;;;;;14.85;10.70;;;14.50;1.00;;;;;;5091887;28;20025;-86
2022/05/01 00:18:22;;;;;;;10.73;9.55;;;14.40;1.00;;;;;;5091547;28;20024;-86
2022/05/01 00:20:49;;;;;;;11.90;10.65;;;14.30;1.00;;;;;;5090497;28;20031;-86
2022/05/01 00:23:15;;;;;;;10.98;9.85;;;14.20;1.00;;;;;;5089657;28;20066;-85
2022/05/01 00:25:42;;;;;;;11.48;10.13;;;14.20;1.00;;;;;;5092050;28;20032;-86
2022/05/01 00:28:09;;;;;;;14.63;10.57;;;14.30;1.00;;;;;;5090498;28;20055;-86
2022/05/01 00:30:36;;;;;;;11.52;10.32;;;14.20;1.00;;;;;;5087761;28;20391;-86
2022/05/01 00:38:30;;;;;;;16.60;10.73;;;14.10;1.00;;;;;;5091408;28;20091;-86
2022/05/01 00:40:57;;;;;;;10.98;9.82;;;13.90;1.00;;;;;;5091425;28;20479;-86
2022/05/01 00:43:22;;;;;;;11.02;9.70;;;14.00;1.00;;;;;;5091275;28;20107;-86
2022/05/01 00:45:48;;;;;;;12.30;10.75;;;13.90;1.00;;;;;;5090072;28;20107;-86
2022/05/01 00:48:14;;;;;;;15.82;10.20;;;13.90;1.00;;;;;;5091627;28;20429;-86
2022/05/01 00:50:41;;;;;;;11.07;9.95;;;13.90;1.00;;;;;;5091498;28;20403;-86
2022/05/01 00:53:07;;;;;;;12.13;10.57;;;13.90;1.00;;;;;;5094980;28;20032;-86
2022/05/01 00:55:34;;;;;;;11.73;10.48;;;13.90;1.00;;;;;;5093941;28;20041;-86
2022/05/01 00:58:01;;;;;;;12.13;10.82;;;13.80;1.00;;;;;;5095746;28;20044;-85
2022/05/01 01:00:27;;;;;;;12.60;10.30;;;13.80;1.00;;;;;;5094502;28;20081;-85
2022/05/01 01:02:54;;;;;;;11.82;10.63;;;13.70;1.00;;;;;;5094693;28;20119;-86
2022/05/01 01:05:19;;;;;;;13.77;11.77;;;13.70;1.00;;;;;;5095205;28;20020;-86
2022/05/01 01:07:45;;;;;;;11.63;10.43;;;13.70;1.00;;;;;;5095442;28;20039;-85
2022/05/01 01:10:12;;;;;;;12.90;11.07;;;13.60;1.00;;;;;;5095015;28;20387;-86
2022/05/01 01:12:55;;;;;;;12.55;10.80;;;13.50;1.00;;;;;;5095526;28;20048;-86
2022/05/01 01:15:23;;;;;;;12.25;10.88;;;13.50;1.00;;;;;;5093626;28;20024;-86
2022/05/01 01:17:54;;;;;;;13.02;11.20;;;13.60;1.00;;;;;;5094413;28;20042;-86
2022/05/01 01:20:21;;;;;;;11.88;10.68;;;13.50;1.00;;;;;;5094848;28;20031;-86
2022/05/01 01:22:50;;;;;;;14.07;11.43;;;13.50;1.00;;;;;;5094642;28;20056;-85
2022/05/01 01:25:20;;;;;;;13.50;11.05;;;13.50;1.00;;;;;;5094776;28;20534;-86
2022/05/01 01:27:47;;;;;;;14.55;10.88;;;13.40;1.00;;;;;;5093185;28;20415;-86
2022/05/01 01:32:59;;;;;;;12.27;10.88;;;13.50;1.00;;;;;;5094529;28;20506;-86
2022/05/01 01:35:25;;;;;;;13.88;11.63;;;13.40;1.00;;;;;;5093063;28;20038;-86
2022/05/01 01:37:53;;;;;;;13.18;11.77;;;13.30;1.00;;;;;;5094193;28;20028;-86
2022/05/01 01:40:23;;;;;;;15.73;11.38;;;13.40;1.00;;;;;;5094557;28;20028;-86
2022/05/01 01:42:50;;;;;;;12.85;11.55;;;13.30;1.00;;;;;;5094649;28;20537;-86
2022/05/01 01:45:17;;;;;;;14.80;11.80;;;13.30;1.00;;;;;;5093395;28;20105;-86
2022/05/01 01:47:44;;;;;;;13.82;11.68;;;13.10;1.00;;;;;;5092972;28;20439;-86
2022/05/01 01:50:12;;;;;;;12.70;11.27;;;12.80;1.00;;;;;;5094273;28;20024;-85
2022/05/01 01:52:38;;;;;;;14.10;11.73;;;12.60;1.00;;;;;;5092929;28;20398;-86
2022/05/01 01:55:04;;;;;;;12.98;11.68;;;12.80;1.00;;;;;;5094637;28;20111;-85
2022/05/01 01:57:30;;;;;;;14.15;11.95;;;12.80;1.00;;;;;;5094851;28;20032;-86
2022/05/01 01:59:56;;;;;;;12.45;11.13;;;12.80;1.00;;;;;;5092498;28;20032;-86
2022/05/01 02:02:21;;;;;;;12.23;10.88;;;12.60;1.00;;;;;;5092867;28;20491;-86
2022/05/01 02:04:47;;;;;;;14.02;11.73;;;12.50;1.00;;;;;;5094582;28;20055;-85
2022/05/01 02:07:12;;;;;;;15.07;11.57;;;12.60;1.00;;;;;;5092644;28;20028;-86
2022/05/01 02:09:38;;;;;;;16.10;10.90;;;12.60;1.00;;;;;;5094516;28;20484;-86
2022/05/01 02:12:08;;;;;;;14.52;11.30;;;12.10;1.00;;;;;;5093749;28;20028;-86
2022/05/01 02:14:35;;;;;;;14.07;10.80;;;11.70;1.00;;;;;;5092527;28;20024;-86
2022/05/01 02:17:02;;;;;;;17.63;12.27;;;11.80;1.00;;;;;;5093664;28;20060;-86
2022/05/01 02:19:29;;;;;;;13.63;11.05;;;12.00;1.00;;;;;;5093595;28;20032;-85
2022/05/01 02:21:54;;;;;;;13.52;10.40;;;12.20;1.00;;;;;;5093994;28;20039;-86
2022/05/01 02:24:20;;;;;;;15.52;11.57;;;11.90;1.00;;;;;;5092862;28;20390;-86
2022/05/01 02:26:47;;;;;;;13.73;11.27;;;11.70;1.00;;;;;;5093419;28;20120;-86
2022/05/01 02:29:13;;;;;;;13.40;12.00;;;11.90;1.00;;;;;;5092123;28;20031;-86
2022/05/01 02:31:44;;;;;;;15.27;11.85;;;12.00;1.00;;;;;;5092029;28;20024;-85
2022/05/01 02:34:11;;;;;;;12.88;11.50;;;12.00;1.00;;;;;;5077937;28;20031;-86
2022/05/01 02:36:38;;;;;;;15.77;12.07;;;11.80;1.00;;;;;;5094014;28;20031;-86
2022/05/01 02:39:05;;;;;;;15.57;11.68;;;11.60;1.00;;;;;;5092025;28;20093;-86
2022/05/01 02:41:31;;;;;;;13.15;11.40;;;11.60;1.00;;;;;;5092246;28;20073;-86
2022/05/01 02:43:57;;;;;;;13.32;11.88;;;11.80;1.00;;;;;;5091301;28;20035;-87
2022/05/01 02:46:25;;;;;;;13.48;11.93;;;11.70;1.00;;;;;;5093595;28;20032;-86
2022/05/01 02:48:51;;;;;;;17.08;12.63;;;11.80;1.00;;;;;;5092982;28;20440;-86
2022/05/01 02:51:17;;;;;;;12.95;11.55;;;11.50;1.00;;;;;;5093539;28;20112;-86
2022/05/01 02:53:43;;;;;;;14.07;12.57;;;11.70;1.00;;;;;;5091848;28;20429;-86
2022/05/01 02:56:09;;;;;;;14.80;11.98;;;11.80;1.00;;;;;;5093385;28;20342;-85
2022/05/01 02:58:35;;;;;;;14.13;12.30;;;11.70;1.00;;;;;;5092763;28;20033;-85
2022/05/01 03:01:00;;;;;;;13.95;11.98;;;11.70;1.00;;;;;;5092142;28;20161;-86
2022/05/01 03:03:27;;;;;;;15.38;12.18;;;11.80;1.00;;;;;;5093377;28;20052;-86
2022/05/01 03:05:54;;;;;;;17.20;12.90;;;11.60;1.00;;;;;;5091394;28;20541;-85
2022/05/01 03:08:20;;;;;;;16.88;12.73;;;11.60;1.00;;;;;;5092765;28;20400;-86
2022/05/01 03:10:46;;;;;;;14.95;12.27;;;11.50;1.00;;;;;;5093338;28;20027;-87
2022/05/01 03:13:12;;;;;;;16.40;13.38;;;11.60;1.00;;;;;;5092355;28;20025;-87
2022/05/01 03:15:38;;;;;;;16.42;12.45;;;11.60;1.00;;;;;;5092664;28;20084;-87
2022/05/01 03:23:43;;;;;;;14.77;12.40;;;11.10;1.00;;;;;;5090018;28;20028;-86
2022/05/01 03:26:09;;;;;;;15.48;12.85;;;11.20;1.00;;;;;;5090150;28;20101;-87
2022/05/01 03:28:35;;;;;;;15.35;11.95;;;11.20;1.00;;;;;;5069982;28;20079;-87
2022/05/01 03:31:00;;;;;;;13.52;11.38;;;11.20;1.00;;;;;;5089659;28;20028;-87
2022/05/01 03:33:26;;;;;;;14.27;12.73;;;11.00;1.00;;;;;;5090876;28;20411;-87
2022/05/01 03:35:53;;;;;;;14.68;11.88;;;10.90;1.00;;;;;;5065642;28;20510;-87
2022/05/01 03:38:20;;;;;;;15.68;12.55;;;10.80;1.00;;;;;;5083969;28;20024;-87
2022/05/01 03:40:47;;;;;;;14.20;12.80;;;10.70;1.00;;;;;;5090017;28;20454;-87
2022/05/01 03:43:17;;;;;;;14.80;13.25;;;10.60;1.00;;;;;;5072741;28;20038;-87
2022/05/01 03:45:43;;;;;;;15.30;12.77;;;10.60;1.00;;;;;;5070487;28;20046;-87
2022/05/01 03:48:09;;;;;;;14.25;11.85;;;10.70;1.00;;;;;;5090441;28;20043;-87
2022/05/01 03:50:35;;;;;;;14.15;12.23;;;10.90;1.00;;;;;;5064672;28;20035;-87
2022/05/01 03:53:04;;;;;;;14.48;12.98;;;10.80;1.00;;;;;;5081438;28;20047;-87
2022/05/01 03:55:31;;;;;;;15.10;12.50;;;10.80;1.00;;;;;;5089686;28;20066;-87
2022/05/01 03:57:58;;;;;;;16.90;13.18;;;10.70;1.00;;;;;;5089658;28;20078;-87
2022/05/01 04:00:24;;;;;;;14.27;12.75;;;10.80;1.00;;;;;;5083257;28;20028;-87
2022/05/01 04:02:52;;;;;;;15.75;12.48;;;10.30;1.00;;;;;;5092076;28;20085;-87
2022/05/01 04:05:17;;;;;;;16.83;12.93;;;10.60;1.00;;;;;;5091784;28;20031;-87
2022/05/01 04:07:43;;;;;;;16.17;13.32;;;10.60;1.00;;;;;;5091600;28;20039;-87
2022/05/01 04:10:09;;;;;;;14.80;13.20;;;10.40;1.00;;;;;;5091668;28;20395;-87
2022/05/01 04:12:42;;;;;;;14.32;12.82;;;10.50;1.00;;;;;;5087740;28;20396;-87
2022/05/01 04:15:09;;;;;;;15.02;13.23;;;10.60;1.00;;;;;;5090498;28;20036;-87
2022/05/01 04:17:40;;;;;;;15.20;13.05;;;10.70;1.00;;;;;;5090602;28;20035;-86
2022/05/01 04:20:12;;;;;;;15.38;13.38;;;10.70;1.00;;;;;;5091629;28;20039;-87
2022/05/01 04:22:42;;;;;;;17.60;13.43;;;10.80;1.00;;;;;;5090372;28;20035;-87
2022/05/01 04:25:18;;;;;;;16.55;12.98;;;10.70;1.00;;;;;;5074456;28;20504;-87
2022/05/01 04:27:45;;;;;;;15.57;13.90;;;10.60;1.00;;;;;;5090357;28;20056;-87
2022/05/01 04:30:13;;;;;;;16.75;13.50;;;10.30;1.00;;;;;;5091141;28;20059;-87
2022/05/01 04:32:51;;;;;;;15.90;13.82;;;10.50;1.00;;;;;;5091411;28;20593;-87
2022/05/01 04:35:21;;;;;;;19.85;14.00;;;10.40;1.00;;;;;;5091602;28;20074;-87
2022/05/01 04:37:47;;;;;;;17.58;14.18;;;10.30;1.00;;;;;;5091308;28;20043;-87
2022/05/01 04:40:14;;;;;;;15.50;13.85;;;10.30;1.00;;;;;;5091124;28;20488;-87
2022/05/01 04:42:41;;;;;;;16.85;14.63;;;10.60;1.00;;;;;;5090484;28;20020;-87
2022/05/01 04:45:08;;;;;;;18.17;14.15;;;10.60;1.00;;;;;;5091322;28;20028;-86
2022/05/01 04:47:34;;;;;;;18.95;15.20;;;10.60;1.00;;;;;;5091515;28;20028;-86
2022/05/01 04:49:59;;;;;;;19.45;14.77;;;10.40;1.00;;;;;;5089852;28;20101;-87
2022/05/01 04:52:25;;;;;;;18.02;15.43;;;10.20;1.00;;;;;;5090097;28;20032;-87
2022/05/01 04:54:51;;;;;;;19.00;13.85;;;10.30;1.00;;;;;;5091123;28;20032;-87
2022/05/01 04:57:17;;;;;;;20.20;14.80;;;10.20;1.00;;;;;;5090252;28;20036;-87
2022/05/01 04:59:43;;;;;;;17.50;14.20;;;10.20;1.00;;;;;;5091252;28;20024;-86
2022/05/01 05:02:09;;;;;;;19.83;14.27;;;10.40;1.00;;;;;;5091608;28;20107;-87
2022/05/01 05:04:34;;;;;;;16.55;14.32;;;10.40;1.00;;;;;;5089841;28;20115;-87
2022/05/01 05:07:00;;;;;;;19.30;15.43;;;10.20;1.00;;;;;;5091172;28;20115;-87
2022/05/01 05:12:09;;;;;;;18.75;14.13;;;10.50;1.00;;;;;;5091712;28;20093;-87
2022/05/01 05:14:36;;;;;;;17.70;14.25;;;10.60;1.00;;;;;;5091240;28;20491;-87
2022/05/01 05:17:06;;;;;;;16.08;14.00;;;10.40;1.00;;;;;;5091331;28;20032;-87
2022/05/01 05:19:33;;;;;;;21.00;14.88;;;10.20;1.00;;;;;;5091014;28;20036;-87
2022/05/01 05:21:58;;;;;;;17.85;13.23;;;10.50;1.00;;;;;;5091090;28;20103;-87
2022/05/01 05:24:24;;;;;;;17.33;14.38;;;10.50;1.00;;;;;;5091309;28;20060;-87
2022/05/01 05:26:50;;;;;;;16.20;14.02;;;10.40;1.00;;;;;;5089526;28;20444;-87
2022/05/01 05:29:15;;;;;;;18.40;14.23;;;10.30;1.00;;;;;;5091102;28;20431;-87
2022/05/01 05:31:41;;;;;;;17.23;14.57;;;10.40;1.00;;;;;;5090850;28;20027;-87
2022/05/01 05:34:07;;;;;;;16.85;14.15;;;10.40;1.00;;;;;;5074894;28;20030;-87
2022/05/01 05:36:32;;;;;;;16.45;13.95;;;10.30;1.00;;;;;;5090294;28;20181;-86
2022/05/01 05:38:58;;;;;;;17.58;14.45;;;10.40;1.00;;;;;;5093588;28;20532;-87
2022/05/01 05:41:23;;;;;;;17.80;13.98;;;10.50;1.00;;;;;;5094832;28;20103;-88
2022/05/01 05:43:49;;;;;;;17.73;14.85;;;10.40;1.00;;;;;;5093048;28;20047;-87
2022/05/01 05:46:15;;;;;;;18.73;13.95;;;10.20;1.00;;;;;;5094607;28;20043;-86
2022/05/01 05:48:40;;;;;;;18.70;14.45;;;10.20;1.00;;;;;;5095535;28;20036;-87
2022/05/01 05:51:06;;;;;;;17.35;14.70;;;10.20;1.00;;;;;;5094741;28;20085;-87
2022/05/01 05:53:32;;;;;;;17.50;14.57;;;10.30;1.00;;;;;;5092494;28;20127;-87
2022/05/01 05:55:58;;;;;;;18.00;14.38;;;10.60;1.00;;;;;;5093008;28;20114;-87
2022/05/01 05:58:24;;;;;;;18.40;14.50;;;10.80;1.00;;;;;;5093149;28;20037;-87
2022/05/01 06:00:49;;;;;;;18.05;15.02;;;11.00;1.00;;;;;;5092780;28;20065;-87
2022/05/01 06:03:15;;;;;;;17.02;14.73;;;11.10;1.00;;;;;;5094537;28;20039;-87
2022/05/01 06:05:41;;;;;;;19.15;14.25;;;11.10;1.00;;;;;;5093817;28;20028;-87
2022/05/01 06:08:07;;;;;;;18.35;14.35;;;11.20;1.00;;;;;;5092110;28;20114;-87
2022/05/01 06:10:33;;;;;;;19.48;15.35;;;11.30;1.00;;;;;;5094282;28;20108;-87
2022/05/01 06:12:59;;;;;;;18.77;14.75;;;11.10;1.00;;;;;;5093764;28;20036;-86
2022/05/01 06:15:25;;;;;;;18.10;14.88;;;11.30;1.00;;;;;;5095393;28;20023;-87
2022/05/01 06:17:51;;;;;;;19.98;15.10;;;11.40;1.00;;;;;;5093791;28;20032;-87
2022/05/01 06:20:17;;;;;;;17.90;15.27;;;11.60;1.00;;;;;;5092414;28;20152;-86
2022/05/01 06:22:43;;;;;;;20.92;15.77;;;11.80;1.00;;;;;;5092811;28;20039;-86
2022/05/01 06:25:09;;;;;;;20.67;16.33;;;11.80;1.00;;;;;;5092308;28;20489;-86
2022/05/01 06:27:35;;;;;;;19.90;15.77;;;11.90;1.00;;;;;;5088364;28;20055;-86
2022/05/01 06:30:01;;;;;;;22.23;15.68;;;11.80;1.00;;;;;;5093469;28;20491;-87
2022/05/01 06:32:27;;;;;;;19.63;15.85;;;11.80;1.00;;;;;;5093070;28;20036;-88
2022/05/01 06:34:53;;;;;;;23.65;16.10;;;11.80;1.00;;;;;;5092950;28;20020;-87
2022/05/01 06:37:18;;;;;;;20.52;15.13;;;11.80;1.00;;;;;;5093351;28;20036;-87
2022/05/01 06:39:44;;;;;;;20.70;16.55;;;11.80;1.00;;;;;;5093681;28;20099;-87
2022/05/01 06:42:10;;;;;;;21.08;16.27;;;11.90;1.00;;;;;;5094017;28;20079;-87
2022/05/01 06:44:36;;;;;;;19.70;16.00;;;11.90;1.00;;;;;;5093246;28;20032;-87
2022/05/01 06:47:02;;;;;;;20.50;15.88;;;11.90;1.00;;;;;;5093426;28;20046;-87
2022/05/01 06:49:28;;;;;;;19.98;15.27;;;11.80;1.00;;;;;;5091146;28;20036;-87
2022/05/01 06:51:53;;;;;;;20.60;16.05;;;11.70;1.00;;;;;;5091737;28;20070;-87
2022/05/01 06:54:19;;;;;;;21.23;15.50;;;11.70;1.00;;;;;;5090866;28;20130;-87
2022/05/01 06:56:44;;;;;;;20.20;15.88;;;11.70;1.00;;;;;;5093046;28;20028;-87
2022/05/01 06:59:11;;;;;;;19.38;15.15;;;11.80;1.00;;;;;;5093317;28;20265;-87
2022/05/01 07:01:37;;;;;;;20.00;15.60;;;11.80;1.00;;;;;;5093295;28;20115;-87
2022/05/01 07:04:02;;;;;;;19.20;15.60;;;12.00;1.00;;;;;;5093049;28;20463;-87
2022/05/01 07:06:28;;;;;;;19.52;15.50;;;12.10;1.00;;;;;;5091924;28;20476;-86
2022/05/01 07:08:54;;;;;;;22.92;15.93;;;12.10;1.00;;;;;;5092792;28;20063;-87
2022/05/01 07:11:19;;;;;;;19.15;15.30;;;12.00;1.00;;;;;;5093134;28;20027;-88
2022/05/01 07:13:45;;;;;;;23.60;16.63;;;12.10;1.00;;;;;;5092136;28;20063;-88
2022/05/01 07:16:10;;;;;;;18.35;15.40;;;12.20;1.00;;;;;;5093170;28;20021;-88
2022/05/01 07:18:36;;;;;;;23.58;16.17;;;12.00;1.00;;;;;;5092665;28;20077;-89
2022/05/01 07:21:02;;;;;;;18.77;15.50;;;11.90;1.00;;;;;;5091510;28;20042;-88
2022/05/01 07:23:28;;;;;;;20.40;16.05;;;12.00;1.00;;;;;;5091668;28;20388;-88
2022/05/01 07:25:54;;;;;;;18.48;15.43;;;12.10;1.00;;;;;;5091868;28;20032;-88
2022/05/01 07:28:19;;;;;;;22.08;16.70;;;12.10;1.00;;;;;;5091901;28;20048;-88
2022/05/01 07:30:45;;;;;;;19.58;16.30;;;12.20;1.00;;;;;;5093195;28;20024;-89
2022/05/01 07:33:11;;;;;;;19.17;15.75;;;12.30;1.00;;;;;;5091903;28;20032;-88
2022/05/01 07:35:37;;;;;;;21.60;16.92;;;12.30;1.00;;;;;;5092709;28;20432;-88
2022/05/01 07:38:03;;;;;;;19.42;15.82;;;12.40;1.00;;;;;;5090955;28;20036;-87
2022/05/01 07:40:29;;;;;;;25.60;16.02;;;12.50;1.00;;;;;;5092427;28;20031;-84
2022/05/01 07:42:55;;;;;;;18.30;16.40;;;12.90;99.90;;;;;;5091849;28;20032;-82
2022/05/01 07:45:20;;;;;;;18.48;15.43;;;13.10;99.90;;;;;;5092721;28;20027;-86
2022/05/01 07:47:46;;;;;;;21.20;16.65;;;13.20;99.90;;;;;;5090442;28;20040;-80
2022/05/01 07:50:12;;;;;;;20.70;16.23;;;13.00;99.90;;;;;;5091693;28;20490;-90
2022/05/01 07:52:38;;;;;;;20.23;16.50;;;13.10;99.90;;;;;;5092944;28;20095;-90
2022/05/01 07:55:04;;;;;;;22.42;16.83;;;12.90;99.90;;;;;;5090314;28;20556;-81
2022/05/01 07:57:30;;;;;;;19.13;15.60;;;12.90;99.90;;;;;;5092788;28;20051;-84
2022/05/01 07:59:56;;;;;;;21.52;16.45;;;12.90;99.90;;;;;;5090905;28;20059;-82
2022/05/01 08:02:22;;;;;;;20.83;16.08;;;12.90;99.90;;;;;;5089964;28;20028;-81
2022/05/01 08:04:48;;;;;;;21.02;15.90;;;13.10;99.90;;;;;;5090193;28;20030;-81
2022/05/01 08:07:15;;;;;;;18.58;16.58;;;13.20;99.90;;;;;;5091459;28;20039;-81
2022/05/01 08:09:41;;;;;;;22.58;16.27;;;13.20;99.90;;;;;;5092188;28;20028;-81
2022/05/01 08:12:07;;;;;;;20.15;16.67;;;13.40;99.90;;;;;;5091764;28;20151;-81
2022/05/01 08:14:32;;;;;;;20.02;16.63;;;13.30;99.90;;;;;;5089994;28;20119;-82
2022/05/01 08:16:58;;;;;;;19.52;15.48;;;13.50;99.90;;;;;;5090851;28;20103;-81
2022/05/01 08:22:08;;;;;;;21.65;16.08;;;13.50;99.90;;;;;;5075405;28;20543;-81
2022/05/01 08:24:34;;;;;;;18.70;15.98;;;13.70;99.90;;;;;;5091752;28;20031;-81
2022/05/01 08:27:06;;;;;;;17.88;15.50;;;13.80;99.90;;;;;;5091158;28;20040;-81
2022/05/01 08:29:39;;;;;;;20.40;16.27;;;13.70;99.90;;;;;;5091158;28;20122;-81
2022/05/01 08:32:06;;;;;;;19.73;15.98;;;13.50;99.90;;;;;;5090558;28;20028;-81
2022/05/01 08:34:32;;;;;;;19.60;15.75;;;13.60;99.90;;;;;;5091444;28;20488;-81
2022/05/01 08:36:57;;;;;;;21.45;15.63;;;13.70;99.90;;;;;;5091056;28;20032;-81
2022/05/01 08:39:23;;;;;;;19.02;15.45;;;13.90;99.90;;;;;;5091472;28;20401;-81
2022/05/01 08:41:49;;;;;;;17.92;15.00;;;14.00;99.90;;;;;;5090673;28;20032;-81
2022/05/01 08:44:17;;;;;;;17.30;13.95;;;14.20;99.90;;;;;;5090882;28;20028;-81
2022/05/01 08:46:48;;;;;;;17.85;15.05;;;14.10;99.90;;;;;;5090713;28;20031;-81
2022/05/01 08:49:17;;;;;;;17.52;15.15;;;14.20;99.90;;;;;;5091329;28;20035;-81
2022/05/01 08:51:43;;;;;;;17.80;15.40;;;14.20;99.90;;;;;;5091257;28;20107;-81
2022/05/01 08:54:11;;;;;;;17.58;14.65;;;14.30;99.90;;;;;;5091353;28;20103;-81
2022/05/01 08:56:40;;;;;;;16.27;14.40;;;14.30;99.90;;;;;;5091153;28;20050;-81
2022/05/01 08:59:09;;;;;;;18.10;14.25;;;14.30;99.90;;;;;;5090756;28;20491;-81
2022/05/01 09:01:36;;;;;;;16.67;14.65;;;14.40;99.90;;;;;;5090629;28;20024;-81
2022/05/01 09:04:06;;;;;;;17.25;14.95;;;14.50;99.90;;;;;;5091352;28;22275;-81
2022/05/01 09:06:35;;;;;;;17.88;14.55;;;14.70;99.90;;;;;;5091467;28;20047;-81
2022/05/01 09:09:08;;;;;;;19.45;14.90;;;14.90;99.90;;;;;;5090746;28;20117;-81
2022/05/01 09:14:29;;;;;;;16.92;13.90;;;14.80;99.90;;;;;;5094576;28;20039;-81
2022/05/01 09:17:24;;;;;;;17.27;14.65;;;14.80;99.90;;;;;;5094453;28;20028;-81
2022/05/01 09:19:53;;;;;;;16.27;13.88;;;14.90;99.90;;;;;;5088806;28;20407;-81
2022/05/01 09:22:20;;;;;;;16.55;13.88;;;14.90;99.90;;;;;;5094502;28;20035;-81
2022/05/01 09:24:53;;;;;;;17.02;14.27;;;15.10;99.90;;;;;;5094607;28;20111;-81
2022/05/01 09:27:31;;;;;;;16.90;13.80;;;15.40;99.90;;;;;;5094413;28;20048;-81
2022/05/01 09:30:19;;;;;;;17.77;13.50;;;15.50;99.90;;;;;;5094326;28;20035;-81
2022/05/01 09:32:46;;;;;;;20.05;14.30;;;15.40;99.90;;;;;;5094340;28;20035;-81
2022/05/01 09:35:32;;;;;;;13.63;12.18;;;15.50;99.90;;;;;;5094279;28;20605;-81
2022/05/01 09:38:17;;;;;;;14.13;12.65;;;15.40;99.90;;;;;;5093938;28;20028;-81
2022/05/01 09:40:50;;;;;;;16.20;13.10;;;15.50;99.90;;;;;;5093816;28;20484;-81
2022/05/01 09:43:46;;;;;;;12.73;11.40;;;15.90;99.90;;;;;;5094164;28;20056;-81
2022/05/01 09:46:27;;;;;;;13.25;11.60;;;16.30;99.90;;;;;;5078513;28;20027;-81
2022/05/01 09:49:03;;;;;;;13.68;12.27;;;15.90;99.90;;;;;;5094322;28;20492;-81
2022/05/01 09:51:30;;;;;;;16.08;12.30;;;15.70;99.90;;;;;;5093471;28;20460;-81
2022/05/01 09:53:59;;;;;;;14.40;12.13;;;15.90;99.90;;;;;;5094024;28;20080;-81
2022/05/01 09:56:25;;;;;;;13.85;12.10;;;16.00;99.90;;;;;;5093892;28;20024;-82
2022/05/01 09:59:11;;;;;;;14.35;12.30;;;16.00;99.90;;;;;;5093405;28;20028;-81
2022/05/01 10:01:36;;;;;;;13.13;11.30;;;16.10;99.90;;;;;;5093558;28;20028;-81
2022/05/01 10:04:03;;;;;;;14.07;12.05;;;16.20;99.90;;;;;;5093605;28;20027;-81
2022/05/01 10:06:31;;;;;;;13.98;11.23;;;16.40;99.90;;;;;;5094349;28;20038;-81
2022/05/01 10:08:57;;;;;;;12.50;11.20;;;16.60;99.90;;;;;;5093480;28;20032;-81
2022/05/01 10:11:24;;;;;;;12.98;11.00;;;16.80;99.90;;;;;;5093921;28;20028;-81
2022/05/01 10:13:50;;;;;;;11.13;9.77;;;16.80;99.90;;;;;;5093068;28;20027;-83
2022/05/01 10:16:16;;;;;;;13.40;9.98;;;16.80;99.90;;;;;;5093043;28;20028;-81
2022/05/01 10:18:44;;;;;;;11.95;10.00;;;16.80;99.90;;;;;;5093840;28;20028;-82
2022/05/01 10:21:11;;;;;;;11.70;10.50;;;16.80;99.90;;;;;;5093752;28;20024;-84
2022/05/01 10:23:36;;;;;;;11.07;9.98;;;16.80;99.90;;;;;;5093058;28;20030;-85
2022/05/01 10:26:25;;;;;;;10.95;9.85;;;17.10;99.90;;;;;;5093122;28;20484;-84
2022/05/01 10:28:51;;;;;;;12.98;9.45;;;17.40;99.90;;;;;;5092731;28;20036;-84
2022/05/01 10:34:49;;;;;;;9.18;8.23;;;17.60;99.90;;;;;;5081379;28;20042;-91
2022/05/01 10:37:37;;;;;;;8.70;7.80;;;18.00;99.90;;;;;;5094379;28;20040;-83
2022/05/01 10:40:03;;;;;;;10.38;8.65;;;18.10;99.90;;;;;;5092905;28;20021;-89
2022/05/01 10:42:38;;;;;;;10.73;9.30;;;18.10;99.90;;;;;;5094421;28;20088;-86
2022/05/01 10:45:25;;;;;;;9.30;8.32;;;17.90;99.90;;;;;;5092521;28;20035;-84
2022/05/01 10:47:52;;;;;;;14.95;8.80;;;17.80;99.90;;;;;;5086703;28;20051;-89
2022/05/01 10:50:28;;;;;;;8.90;7.28;;;18.10;99.90;;;;;;5093155;28;20020;-84
2022/05/01 10:53:14;;;;;;;9.40;7.47;;;18.60;99.90;;;;;;5092623;28;20487;-86
2022/05/01 10:55:43;;;;;;;8.35;7.55;;;18.70;99.90;;;;;;5092685;28;20024;-85
2022/05/01 10:58:26;;;;;;;9.73;7.47;;;18.80;99.90;;;;;;5076441;28;20020;-83
2022/05/01 11:00:54;;;;;;;7.38;6.68;;;18.70;99.90;;;;;;5089600;28;20476;-84
2022/05/01 11:03:26;;;;;;;8.23;7.18;;;18.80;99.90;;;;;;5093139;28;20026;-85
2022/05/01 11:06:06;;;;;;;8.13;7.00;;;19.10;99.90;;;;;;5093290;28;20032;-84
2022/05/01 11:08:36;;;;;;;7.18;6.40;;;19.60;99.90;;;;;;5092333;28;20553;-83
2022/05/01 11:11:05;;;;;;;7.70;6.97;;;20.00;99.90;;;;;;5092124;28;20213;-83
2022/05/01 11:13:36;;;;;;;8.20;6.90;;;20.40;99.90;;;;;;5093184;28;20065;-84
2022/05/01 11:16:12;;;;;;;7.30;6.63;;;20.90;99.90;;;;;;5092366;28;20024;-83
2022/05/01 11:18:41;;;;;;;7.70;7.03;;;20.90;99.90;;;;;;5089158;28;20035;-84
2022/05/01 11:21:21;;;;;;;7.80;7.10;;;20.50;99.90;;;;;;5092461;28;20468;-83
2022/05/01 11:24:10;;;;;;;8.20;7.40;;;21.80;99.90;;;;;;5091774;28;20443;-83
2022/05/01 11:26:36;;;;;;;5.78;5.07;;;23.10;99.90;;;;;;5091952;28;20433;-83
2022/05/01 11:29:17;;;;;;;5.55;5.05;;;23.60;99.90;;;;;;5092444;28;20029;-83
2022/05/01 11:31:44;;;;;;;6.03;5.43;;;23.60;99.90;;;;;;5092575;28;20020;-83
2022/05/01 11:34:16;;;;;;;6.40;5.15;;;23.70;99.90;;;;;;5076292;28;20037;-83
2022/05/01 11:36:57;;;;;;;4.88;4.47;;;23.60;99.90;;;;;;5088003;28;20020;-82
2022/05/01 11:39:50;;;;;;;5.63;4.78;;;24.30;99.90;;;;;;5090732;28;20119;-83
2022/05/01 11:42:25;;;;;;;5.05;4.63;;;24.40;99.90;;;;;;5092034;28;20379;-83
2022/05/01 11:44:55;;;;;;;4.40;4.00;;;24.40;99.90;;;;;;5092037;28;20028;-83
2022/05/01 11:47:23;;;;;;;4.85;4.38;;;24.90;99.90;;;;;;5092044;28;20090;-83
2022/05/01 11:49:50;;;;;;;4.65;4.22;;;25.90;99.90;;;;;;5091852;28;20024;-83
2022/05/01 11:52:16;;;;;;;5.40;4.63;;;25.40;99.90;;;;;;5091714;28;20028;-83
2022/05/01 11:55:06;;;;;;;5.22;4.20;;;26.10;99.90;;;;;;5092181;28;20024;-83
2022/05/01 12:03:07;;;;;;;4.95;4.47;;;25.40;99.90;;;;;;5092319;28;20042;-83
2022/05/01 12:05:45;;;;;;;4.60;4.20;;;26.10;99.90;;;;;;5091505;28;20432;-82
2022/05/01 12:08:12;;;;;;;4.78;4.20;;;25.80;99.90;;;;;;5091748;28;20081;-83
2022/05/01 12:10:45;;;;;;;4.10;3.80;;;26.60;99.90;;;;;;5091267;28;20027;-82
2022/05/01 12:13:30;;;;;;;4.53;4.10;;;26.90;99.90;;;;;;5075749;28;20099;-83
2022/05/01 12:15:56;;;;;;;3.92;3.60;;;27.30;99.90;;;;;;5089798;28;20028;-83
2022/05/01 12:18:23;;;;;;;4.90;3.65;;;27.10;99.90;;;;;;5092564;28;20027;-83
2022/05/01 12:20:49;;;;;;;4.65;4.25;;;27.70;99.90;;;;;;5091282;28;20111;-83
2022/05/01 12:23:17;;;;;;;5.03;4.22;;;27.00;99.90;;;;;;5091305;28;20118;-84
2022/05/01 12:25:44;;;;;;;4.25;3.88;;;25.10;99.90;;;;;;5091567;28;20069;-82
2022/05/01 12:28:11;;;;;;;5.78;3.97;;;26.10;99.90;;;;;;5075137;28;20040;-83
2022/05/01 12:30:38;;;;;;;4.00;3.63;;;26.90;99.90;;;;;;5087532;28;20508;-83
2022/05/01 12:33:04;;;;;;;4.07;3.30;;;27.00;99.90;;;;;;5091078;28;20036;-81
2022/05/01 12:35:52;;;;;;;4.25;3.78;;;26.80;99.90;;;;;;5090791;28;20024;-83
2022/05/01 12:38:19;;;;;;;5.68;4.47;;;27.00;99.90;;;;;;5090636;28;20039;-83
2022/05/01 12:46:30;;;;;;;4.20;3.90;;;27.10;99.90;;;;;;5076668;28;20146;-83
2022/05/01 12:48:58;;;;;;;4.18;3.78;;;26.60;99.90;;;;;;5095327;28;20038;-83
2022/05/01 12:51:40;;;;;;;4.93;4.43;;;25.00;99.90;;;;;;5096015;28;20020;-83
2022/05/01 12:54:16;;;;;;;4.57;3.70;;;24.40;99.90;;;;;;5095441;28;20028;-83
2022/05/01 12:56:42;;;;;;;4.38;3.78;;;25.60;99.90;;;;;;5095034;28;20119;-83
2022/05/01 12:59:31;;;;;;;4.68;3.90;;;26.60;99.90;;;;;;5095122;28;20115;-83
2022/05/01 13:01:58;;;;;;;4.15;3.75;;;26.60;99.90;;;;;;5085326;28;20024;-83
2022/05/01 13:04:29;;;;;;;4.43;4.00;;;27.40;99.90;;;;;;5094719;28;20127;-83
2022/05/01 13:06:55;;;;;;;3.65;3.35;;;27.60;99.90;;;;;;5095237;28;20016;-83
2022/05/01 13:09:21;;;;;;;5.68;3.65;;;27.80;99.90;;;;;;5093564;28;20032;-83
2022/05/01 13:12:04;;;;;;;4.78;3.70;;;26.90;99.90;;;;;;5094721;28;20024;-83
2022/05/01 13:14:33;;;;;;;4.15;3.78;;;27.20;99.90;;;;;;5094530;28;20032;-83
2022/05/01 13:17:10;;;;;;;4.43;3.97;;;27.60;99.90;;;;;;5094889;28;20024;-83
2022/05/01 13:19:38;;;;;;;4.68;3.90;;;26.70;99.90;;;;;;5094827;28;20031;-85
2022/05/01 13:22:06;;;;;;;7.45;4.07;;;25.90;99.90;;;;;;5094314;28;20032;-84